PWSweather.com
Personal Weather Stations
Station Observations
KNCCHINA3
Red Tractor Trail, China Grove, NC 28023

Red Tractor TrailChina Grove, NC 28023

Lat: 35.59751, Lon: -80.60201

Elevation: 800

Station Type: Oregon Scientific WMR 968

http://www.joesweathergarage.com

Latest ConditionsUpdated 9:38:43 AM EST Friday, Nov 24, 2017
Currently Today's Max Today's Min Today's Average
Temperature 41.1°F5.1°C 46.8°F8.2°C 26.0°F-3.3°C 29.1°F-1.6°C
Dew Point 39.2°F4.0°C 39.2°F4.0°C 25.5°F-3.6°C 27.9°F-2.3°C
Winds 2.7 mph NW4.3 kmh NW 4.2 mph SSW6.8 kmh SSW - 0.1 mph 0.2 kmh
Wind Gusts 3.2 mph5.1 kmh 8.0 mph12.9 kmh - -
Humidity 93% 98% 52% 95%
Pressure 30.06 in1017.9 mb 30.27 in1025.1 mb 30.03 in1016.9 mb -
Hour Temp Dew Point Humidity Winds Wind Gusts Pressure Precip Precip Rate Daily Precip Total
09:38 AM 41.1°F5.1°C 39.2°F4.0°C 93% 2.7 mph NW4.3 kmh NW 3.2 mph5.1 kmh 30.06 in1017.9 mb 0.00 in0.0 mm 0.00 in0.0 mm 0.00 in0.0 mm
09:33 AM 40.2°F4.6°C 38.6°F3.7°C 94% Calm Calm -- 30.06 in1017.9 mb 0.00 in0.0 mm 0.00 in0.0 mm 0.00 in0.0 mm
09:28 AM 39.6°F4.2°C 37.7°F3.2°C 93% Calm Calm -- 30.06 in1017.9 mb 0.00 in0.0 mm 0.00 in0.0 mm 0.00 in0.0 mm
09:22 AM 38.9°F3.8°C 38.4°F3.6°C 98% Calm Calm -- 30.06 in1017.9 mb 0.00 in0.0 mm 0.00 in0.0 mm 0.00 in0.0 mm
09:17 AM 38.4°F3.6°C 37.9°F3.3°C 98% Calm Calm -- 30.06 in1017.9 mb 0.00 in0.0 mm 0.00 in0.0 mm 0.00 in0.0 mm
09:11 AM 37.3°F2.9°C 36.5°F2.5°C 97% Calm Calm -- 30.06 in1017.9 mb 0.00 in0.0 mm 0.00 in0.0 mm 0.00 in0.0 mm
09:06 AM 36.0°F2.2°C 35.2°F1.8°C 97% Calm Calm -- 30.06 in1017.9 mb 0.00 in0.0 mm 0.00 in0.0 mm 0.00 in0.0 mm
09:01 AM 35.3°F1.8°C 34.5°F1.4°C 97% Calm Calm 3.2 mph5.1 kmh 30.06 in1017.9 mb 0.00 in0.0 mm 0.00 in0.0 mm 0.00 in0.0 mm
08:56 AM 34.8°F1.6°C 34.0°F1.1°C 97% 1.9 mph ENE3.1 kmh ENE 3.2 mph5.1 kmh 30.03 in1016.9 mb 0.00 in0.0 mm 0.00 in0.0 mm 0.00 in0.0 mm
08:50 AM 34.1°F1.2°C 33.3°F0.7°C 97% Calm Calm -- 30.03 in1016.9 mb 0.00 in0.0 mm 0.00 in0.0 mm 0.00 in0.0 mm
08:45 AM 33.7°F0.9°C 32.9°F0.5°C 97% Calm Calm -- 30.03 in1016.9 mb 0.00 in0.0 mm 0.00 in0.0 mm 0.00 in0.0 mm
08:41 AM 33.3°F0.7°C 32.8°F0.4°C 98% Calm Calm -- 30.06 in1017.9 mb 0.00 in0.0 mm 0.00 in0.0 mm 0.00 in0.0 mm
08:35 AM 33.0°F0.6°C 32.2°F0.1°C 97% Calm Calm -- 30.06 in1017.9 mb 0.00 in0.0 mm 0.00 in0.0 mm 0.00 in0.0 mm
08:29 AM 32.4°F0.2°C 31.6°F-0.2°C 97% Calm Calm -- 30.06 in1017.9 mb 0.00 in0.0 mm 0.00 in0.0 mm 0.00 in0.0 mm
08:24 AM 32.1°F0.1°C 31.3°F-0.4°C 97% Calm Calm -- 30.03 in1016.9 mb 0.00 in0.0 mm 0.00 in0.0 mm 0.00 in0.0 mm
08:19 AM 31.9°F-0.1°C 31.1°F-0.5°C 97% Calm Calm -- 30.03 in1016.9 mb 0.00 in0.0 mm 0.00 in0.0 mm 0.00 in0.0 mm
08:14 AM 31.9°F-0.1°C 31.4°F-0.3°C 98% Calm Calm -- 30.03 in1016.9 mb 0.00 in0.0 mm 0.00 in0.0 mm 0.00 in0.0 mm
08:09 AM 31.4°F-0.3°C 30.6°F-0.8°C 97% Calm Calm -- 30.06 in1017.9 mb 0.00 in0.0 mm 0.00 in0.0 mm 0.00 in0.0 mm
08:04 AM 30.6°F-0.8°C 29.8°F-1.2°C 97% Calm Calm -- 30.06 in1017.9 mb 0.00 in0.0 mm 0.00 in0.0 mm 0.00 in0.0 mm
07:59 AM 30.1°F-1.1°C 29.6°F-1.3°C 98% Calm Calm -- 30.06 in1017.9 mb 0.00 in0.0 mm 0.00 in0.0 mm 0.00 in0.0 mm
07:54 AM 30.1°F-1.1°C 29.6°F-1.3°C 98% Calm Calm -- 30.06 in1017.9 mb 0.00 in0.0 mm 0.00 in0.0 mm 0.00 in0.0 mm
07:48 AM 29.2°F-1.6°C 28.7°F-1.8°C 98% Calm Calm -- 30.06 in1017.9 mb 0.00 in0.0 mm 0.00 in0.0 mm 0.00 in0.0 mm
07:43 AM 28.3°F-2.1°C 27.8°F-2.3°C 98% Calm Calm -- 30.06 in1017.9 mb 0.00 in0.0 mm 0.00 in0.0 mm 0.00 in0.0 mm
07:38 AM 27.4°F-2.6°C 26.9°F-2.8°C 98% Calm Calm -- 30.06 in1017.9 mb 0.00 in0.0 mm 0.00 in0.0 mm 0.00 in0.0 mm
07:33 AM 26.7°F-2.9°C 26.2°F-3.2°C 98% Calm Calm -- 30.06 in1017.9 mb 0.00 in0.0 mm 0.00 in0.0 mm 0.00 in0.0 mm
07:28 AM 26.3°F-3.2°C 25.8°F-3.4°C 98% Calm Calm -- 30.06 in1017.9 mb 0.00 in0.0 mm 0.00 in0.0 mm 0.00 in0.0 mm
07:23 AM 26.0°F-3.3°C 25.5°F-3.6°C 98% Calm Calm -- 30.06 in1017.9 mb 0.00 in0.0 mm 0.00 in0.0 mm 0.00 in0.0 mm
07:18 AM 26.0°F-3.3°C 25.5°F-3.6°C 98% Calm Calm -- 30.06 in1017.9 mb 0.00 in0.0 mm 0.00 in0.0 mm 0.00 in0.0 mm
07:13 AM 26.0°F-3.3°C 25.5°F-3.6°C 98% Calm Calm -- 30.06 in1017.9 mb 0.00 in0.0 mm 0.00 in0.0 mm 0.00 in0.0 mm
07:08 AM 26.0°F-3.3°C 25.5°F-3.6°C 98% Calm Calm -- 30.06 in1017.9 mb 0.00 in0.0 mm 0.00 in0.0 mm 0.00 in0.0 mm
07:03 AM 26.1°F-3.3°C 25.6°F-3.6°C 98% Calm Calm -- 30.06 in1017.9 mb 0.00 in0.0 mm 0.00 in0.0 mm 0.00 in0.0 mm
06:58 AM 26.3°F-3.2°C 25.8°F-3.4°C 98% Calm Calm -- 30.06 in1017.9 mb 0.00 in0.0 mm 0.00 in0.0 mm 0.00 in0.0 mm
06:53 AM 26.3°F-3.2°C 25.8°F-3.4°C 98% Calm Calm -- 30.06 in1017.9 mb 0.00 in0.0 mm 0.00 in0.0 mm 0.00 in0.0 mm
06:48 AM 26.3°F-3.2°C 25.8°F-3.4°C 98% Calm Calm -- 30.06 in1017.9 mb 0.00 in0.0 mm 0.00 in0.0 mm 0.00 in0.0 mm
06:43 AM 26.3°F-3.2°C 25.8°F-3.4°C 98% Calm Calm -- 30.06 in1017.9 mb 0.00 in0.0 mm 0.00 in0.0 mm 0.00 in0.0 mm
06:38 AM 26.3°F-3.2°C 25.6°F-3.6°C 97% Calm Calm -- 30.06 in1017.9 mb 0.00 in0.0 mm 0.00 in0.0 mm 0.00 in0.0 mm
06:33 AM 26.3°F-3.2°C 25.6°F-3.6°C 97% Calm Calm -- 30.06 in1017.9 mb 0.00 in0.0 mm 0.00 in0.0 mm 0.00 in0.0 mm
06:28 AM 26.1°F-3.3°C 25.6°F-3.6°C 98% Calm Calm -- 30.06 in1017.9 mb 0.00 in0.0 mm 0.00 in0.0 mm 0.00 in0.0 mm
06:23 AM 26.1°F-3.3°C 25.6°F-3.6°C 98% Calm Calm -- 30.06 in1017.9 mb 0.00 in0.0 mm 0.00 in0.0 mm 0.00 in0.0 mm
06:18 AM 26.1°F-3.3°C 25.6°F-3.6°C 98% Calm Calm -- 30.06 in1017.9 mb 0.00 in0.0 mm 0.00 in0.0 mm 0.00 in0.0 mm
06:13 AM 26.3°F-3.2°C 25.8°F-3.4°C 98% Calm Calm -- 30.06 in1017.9 mb 0.00 in0.0 mm 0.00 in0.0 mm 0.00 in0.0 mm
06:08 AM 26.1°F-3.3°C 25.6°F-3.6°C 98% Calm Calm -- 30.06 in1017.9 mb 0.00 in0.0 mm 0.00 in0.0 mm 0.00 in0.0 mm
06:03 AM 26.5°F-3.1°C 26.0°F-3.3°C 98% Calm Calm -- 30.06 in1017.9 mb 0.00 in0.0 mm 0.00 in0.0 mm 0.00 in0.0 mm
05:57 AM 26.5°F-3.1°C 26.0°F-3.3°C 98% Calm Calm -- 30.06 in1017.9 mb 0.00 in0.0 mm 0.00 in0.0 mm 0.00 in0.0 mm
05:52 AM 26.3°F-3.2°C 25.8°F-3.4°C 98% Calm Calm -- 30.06 in1017.9 mb 0.00 in0.0 mm 0.00 in0.0 mm 0.00 in0.0 mm
05:47 AM 26.3°F-3.2°C 25.8°F-3.4°C 98% Calm Calm -- 30.06 in1017.9 mb 0.00 in0.0 mm 0.00 in0.0 mm 0.00 in0.0 mm
05:42 AM 26.5°F-3.1°C 26.0°F-3.3°C 98% Calm Calm -- 30.06 in1017.9 mb 0.00 in0.0 mm 0.00 in0.0 mm 0.00 in0.0 mm
05:37 AM 26.5°F-3.1°C 26.0°F-3.3°C 98% Calm Calm -- 30.06 in1017.9 mb 0.00 in0.0 mm 0.00 in0.0 mm 0.00 in0.0 mm
05:32 AM 26.5°F-3.1°C 26.0°F-3.3°C 98% Calm Calm -- 30.06 in1017.9 mb 0.00 in0.0 mm 0.00 in0.0 mm 0.00 in0.0 mm
05:27 AM 26.7°F-2.9°C 26.2°F-3.2°C 98% Calm Calm -- 30.03 in1016.9 mb 0.00 in0.0 mm 0.00 in0.0 mm 0.00 in0.0 mm
05:22 AM 26.9°F-2.8°C 26.4°F-3.1°C 98% Calm Calm -- 30.03 in1016.9 mb 0.00 in0.0 mm 0.00 in0.0 mm 0.00 in0.0 mm
05:16 AM 26.9°F-2.8°C 26.4°F-3.1°C 98% Calm Calm -- 30.03 in1016.9 mb 0.00 in0.0 mm 0.00 in0.0 mm 0.00 in0.0 mm
05:12 AM 27.0°F-2.8°C 26.5°F-3.1°C 98% Calm Calm -- 30.06 in1017.9 mb 0.00 in0.0 mm 0.00 in0.0 mm 0.00 in0.0 mm
05:06 AM 26.9°F-2.8°C 26.4°F-3.1°C 98% Calm Calm -- 30.06 in1017.9 mb 0.00 in0.0 mm 0.00 in0.0 mm 0.00 in0.0 mm
05:01 AM 27.0°F-2.8°C 26.3°F-3.2°C 97% Calm Calm -- 30.06 in1017.9 mb 0.00 in0.0 mm 0.00 in0.0 mm 0.00 in0.0 mm
04:56 AM 27.0°F-2.8°C 26.3°F-3.2°C 97% Calm Calm -- 30.03 in1016.9 mb 0.00 in0.0 mm 0.00 in0.0 mm 0.00 in0.0 mm
04:51 AM 27.0°F-2.8°C 26.3°F-3.2°C 97% Calm Calm -- 30.03 in1016.9 mb 0.00 in0.0 mm 0.00 in0.0 mm 0.00 in0.0 mm
04:46 AM 27.2°F-2.7°C 26.5°F-3.1°C 97% Calm Calm -- 30.03 in1016.9 mb 0.00 in0.0 mm 0.00 in0.0 mm 0.00 in0.0 mm
04:41 AM 27.4°F-2.6°C 26.7°F-2.9°C 97% Calm Calm -- 30.06 in1017.9 mb 0.00 in0.0 mm 0.00 in0.0 mm 0.00 in0.0 mm
04:36 AM 27.2°F-2.7°C 26.5°F-3.1°C 97% Calm Calm -- 30.06 in1017.9 mb 0.00 in0.0 mm 0.00 in0.0 mm 0.00 in0.0 mm
04:31 AM 27.2°F-2.7°C 26.5°F-3.1°C 97% Calm Calm -- 30.06 in1017.9 mb 0.00 in0.0 mm 0.00 in0.0 mm 0.00 in0.0 mm
04:24 AM 27.2°F-2.7°C 26.2°F-3.2°C 96% Calm Calm -- 30.03 in1016.9 mb 0.00 in0.0 mm 0.00 in0.0 mm 0.00 in0.0 mm
04:19 AM 27.4°F-2.6°C 26.4°F-3.1°C 96% Calm Calm -- 30.03 in1016.9 mb 0.00 in0.0 mm 0.00 in0.0 mm 0.00 in0.0 mm
04:13 AM 27.4°F-2.6°C 26.4°F-3.1°C 96% Calm Calm -- 30.03 in1016.9 mb 0.00 in0.0 mm 0.00 in0.0 mm 0.00 in0.0 mm
04:08 AM 27.6°F-2.4°C 26.6°F-3.0°C 96% Calm Calm -- 30.03 in1016.9 mb 0.00 in0.0 mm 0.00 in0.0 mm 0.00 in0.0 mm
04:03 AM 27.6°F-2.4°C 26.3°F-3.2°C 95% Calm Calm -- 30.03 in1016.9 mb 0.00 in0.0 mm 0.00 in0.0 mm 0.00 in0.0 mm
03:58 AM 27.6°F-2.4°C 26.6°F-3.0°C 96% Calm Calm -- 30.03 in1016.9 mb 0.00 in0.0 mm 0.00 in0.0 mm 0.00 in0.0 mm
03:55 AM 46.8°F8.2°C 29.9°F-1.2°C 52% 4.2 mph SSW6.8 kmh SSW 8.0 mph12.9 kmh 30.27 in1025.1 mb 0.00 in0.0 mm 0.00 in0.0 mm 0.00 in0.0 mm
03:53 AM 27.6°F-2.4°C 26.6°F-3.0°C 96% Calm Calm -- 30.03 in1016.9 mb 0.00 in0.0 mm 0.00 in0.0 mm 0.00 in0.0 mm
03:48 AM 27.8°F-2.3°C 26.8°F-2.9°C 96% Calm Calm -- 30.03 in1016.9 mb 0.00 in0.0 mm 0.00 in0.0 mm 0.00 in0.0 mm
03:43 AM 27.6°F-2.4°C 26.6°F-3.0°C 96% Calm Calm -- 30.03 in1016.9 mb 0.00 in0.0 mm 0.00 in0.0 mm 0.00 in0.0 mm
03:38 AM 27.6°F-2.4°C 26.6°F-3.0°C 96% Calm Calm -- 30.03 in1016.9 mb 0.00 in0.0 mm 0.00 in0.0 mm 0.00 in0.0 mm
03:33 AM 27.8°F-2.3°C 26.8°F-2.9°C 96% Calm Calm -- 30.03 in1016.9 mb 0.00 in0.0 mm 0.00 in0.0 mm 0.00 in0.0 mm
03:28 AM 27.9°F-2.3°C 26.9°F-2.8°C 96% Calm Calm -- 30.03 in1016.9 mb 0.00 in0.0 mm 0.00 in0.0 mm 0.00 in0.0 mm
03:23 AM 27.8°F-2.3°C 26.8°F-2.9°C 96% Calm Calm -- 30.06 in1017.9 mb 0.00 in0.0 mm 0.00 in0.0 mm 0.00 in0.0 mm
03:18 AM 27.9°F-2.3°C 26.6°F-3.0°C 95% Calm Calm -- 30.06 in1017.9 mb 0.00 in0.0 mm 0.00 in0.0 mm 0.00 in0.0 mm
03:12 AM 28.1°F-2.2°C 26.8°F-2.9°C 95% Calm Calm -- 30.03 in1016.9 mb 0.00 in0.0 mm 0.00 in0.0 mm 0.00 in0.0 mm
03:07 AM 27.9°F-2.3°C 26.6°F-3.0°C 95% Calm Calm -- 30.03 in1016.9 mb 0.00 in0.0 mm 0.00 in0.0 mm 0.00 in0.0 mm
03:00 AM 28.1°F-2.2°C 26.6°F-3.0°C 94% Calm Calm -- 30.03 in1016.9 mb 0.00 in0.0 mm 0.00 in0.0 mm 0.00 in0.0 mm
02:54 AM 28.1°F-2.2°C 26.6°F-3.0°C 94% Calm Calm -- 30.06 in1017.9 mb 0.00 in0.0 mm 0.00 in0.0 mm 0.00 in0.0 mm
02:49 AM 28.1°F-2.2°C 26.6°F-3.0°C 94% Calm Calm -- 30.06 in1017.9 mb 0.00 in0.0 mm 0.00 in0.0 mm 0.00 in0.0 mm
02:44 AM 28.1°F-2.2°C 26.8°F-2.9°C 95% Calm Calm -- 30.06 in1017.9 mb 0.00 in0.0 mm 0.00 in0.0 mm 0.00 in0.0 mm
02:38 AM 28.1°F-2.2°C 26.3°F-3.2°C 93% Calm Calm -- 30.06 in1017.9 mb 0.00 in0.0 mm 0.00 in0.0 mm 0.00 in0.0 mm
02:33 AM 27.8°F-2.3°C 26.5°F-3.1°C 95% Calm Calm -- 30.06 in1017.9 mb 0.00 in0.0 mm 0.00 in0.0 mm 0.00 in0.0 mm
02:28 AM 28.1°F-2.2°C 26.6°F-3.0°C 94% Calm Calm -- 30.06 in1017.9 mb 0.00 in0.0 mm 0.00 in0.0 mm 0.00 in0.0 mm
02:23 AM 28.3°F-2.1°C 26.8°F-2.9°C 94% Calm Calm -- 30.06 in1017.9 mb 0.00 in0.0 mm 0.00 in0.0 mm 0.00 in0.0 mm
02:18 AM 28.3°F-2.1°C 26.5°F-3.1°C 93% Calm Calm -- 30.06 in1017.9 mb 0.00 in0.0 mm 0.00 in0.0 mm 0.00 in0.0 mm
02:13 AM 28.1°F-2.2°C 26.6°F-3.0°C 94% Calm Calm -- 30.06 in1017.9 mb 0.00 in0.0 mm 0.00 in0.0 mm 0.00 in0.0 mm
02:08 AM 28.1°F-2.2°C 26.6°F-3.0°C 94% Calm Calm -- 30.06 in1017.9 mb 0.00 in0.0 mm 0.00 in0.0 mm 0.00 in0.0 mm
02:03 AM 28.1°F-2.2°C 26.6°F-3.0°C 94% Calm Calm -- 30.06 in1017.9 mb 0.00 in0.0 mm 0.00 in0.0 mm 0.00 in0.0 mm
01:58 AM 28.5°F-1.9°C 26.7°F-2.9°C 93% Calm Calm -- 30.06 in1017.9 mb 0.00 in0.0 mm 0.00 in0.0 mm 0.00 in0.0 mm
01:53 AM 28.5°F-1.9°C 26.7°F-2.9°C 93% Calm Calm -- 30.06 in1017.9 mb 0.00 in0.0 mm 0.00 in0.0 mm 0.00 in0.0 mm
01:47 AM 28.5°F-1.9°C 27.0°F-2.8°C 94% Calm Calm -- 30.06 in1017.9 mb 0.00 in0.0 mm 0.00 in0.0 mm 0.00 in0.0 mm
01:42 AM 28.5°F-1.9°C 27.0°F-2.8°C 94% Calm Calm -- 30.06 in1017.9 mb 0.00 in0.0 mm 0.00 in0.0 mm 0.00 in0.0 mm
01:37 AM 28.5°F-1.9°C 27.0°F-2.8°C 94% Calm Calm -- 30.06 in1017.9 mb 0.00 in0.0 mm 0.00 in0.0 mm 0.00 in0.0 mm
01:32 AM 28.5°F-1.9°C 26.7°F-2.9°C 93% Calm Calm -- 30.06 in1017.9 mb 0.00 in0.0 mm 0.00 in0.0 mm 0.00 in0.0 mm
01:27 AM 28.7°F-1.8°C 26.9°F-2.8°C 93% Calm Calm -- 30.06 in1017.9 mb 0.00 in0.0 mm 0.00 in0.0 mm 0.00 in0.0 mm
01:22 AM 28.8°F-1.8°C 27.0°F-2.8°C 93% Calm Calm -- 30.06 in1017.9 mb 0.00 in0.0 mm 0.00 in0.0 mm 0.00 in0.0 mm
01:17 AM 29.0°F-1.7°C 27.5°F-2.5°C 94% Calm Calm -- 30.06 in1017.9 mb 0.00 in0.0 mm 0.00 in0.0 mm 0.00 in0.0 mm
01:12 AM 29.0°F-1.7°C 27.2°F-2.7°C 93% Calm Calm -- 30.06 in1017.9 mb 0.00 in0.0 mm 0.00 in0.0 mm 0.00 in0.0 mm
01:06 AM 29.0°F-1.7°C 27.2°F-2.7°C 93% Calm Calm -- 30.06 in1017.9 mb 0.00 in0.0 mm 0.00 in0.0 mm 0.00 in0.0 mm
01:01 AM 29.2°F-1.6°C 26.9°F-2.8°C 91% Calm Calm -- 30.06 in1017.9 mb 0.00 in0.0 mm 0.00 in0.0 mm 0.00 in0.0 mm
12:56 AM 29.2°F-1.6°C 26.9°F-2.8°C 91% Calm Calm -- 30.06 in1017.9 mb 0.00 in0.0 mm 0.00 in0.0 mm 0.00 in0.0 mm
12:51 AM 29.2°F-1.6°C 26.6°F-3.0°C 90% Calm Calm -- 30.06 in1017.9 mb 0.00 in0.0 mm 0.00 in0.0 mm 0.00 in0.0 mm
12:45 AM 29.4°F-1.4°C 26.8°F-2.9°C 90% Calm Calm -- 30.06 in1017.9 mb 0.00 in0.0 mm 0.00 in0.0 mm 0.00 in0.0 mm
12:40 AM 29.4°F-1.4°C 26.8°F-2.9°C 90% Calm Calm -- 30.06 in1017.9 mb 0.00 in0.0 mm 0.00 in0.0 mm 0.00 in0.0 mm
12:34 AM 29.6°F-1.3°C 27.3°F-2.6°C 91% Calm Calm -- 30.06 in1017.9 mb 0.00 in0.0 mm 0.00 in0.0 mm 0.00 in0.0 mm
12:29 AM 29.7°F-1.3°C 27.6°F-2.4°C 92% Calm Calm -- 30.06 in1017.9 mb 0.00 in0.0 mm 0.00 in0.0 mm 0.00 in0.0 mm
12:24 AM 29.9°F-1.2°C 27.3°F-2.6°C 90% Calm Calm -- 30.06 in1017.9 mb 0.00 in0.0 mm 0.00 in0.0 mm 0.00 in0.0 mm
12:19 AM 29.9°F-1.2°C 27.3°F-2.6°C 90% Calm Calm -- 30.06 in1017.9 mb 0.00 in0.0 mm 0.00 in0.0 mm 0.00 in0.0 mm
12:14 AM 29.9°F-1.2°C 27.3°F-2.6°C 90% Calm Calm -- 30.06 in1017.9 mb 0.00 in0.0 mm 0.00 in0.0 mm 0.00 in0.0 mm
12:09 AM 29.9°F-1.2°C 27.3°F-2.6°C 90% Calm Calm -- 30.06 in1017.9 mb 0.00 in0.0 mm 0.00 in0.0 mm 0.00 in0.0 mm
12:04 AM 29.9°F-1.2°C 27.3°F-2.6°C 90% Calm Calm -- 30.06 in1017.9 mb 0.00 in0.0 mm 0.00 in0.0 mm 0.00 in0.0 mm